sensor_id;sensor_type;location;lat;lon;timestamp;pressure;altitude;pressure_sealevel;temperature;humidity
45941;BME280;31858;46.008;8.978;2022-11-15T00:07:48;94813.22;;;5.64;100.00
45941;BME280;31858;46.008;8.978;2022-11-15T00:17:50;94793.41;;;5.46;100.00
45941;BME280;31858;46.008;8.978;2022-11-15T00:27:56;94765.00;;;5.43;100.00
45941;BME280;31858;46.008;8.978;2022-11-15T00:37:57;94760.81;;;5.30;100.00
45941;BME280;31858;46.008;8.978;2022-11-15T00:48:00;94738.69;;;5.46;100.00
45941;BME280;31858;46.008;8.978;2022-11-15T00:58:02;94734.25;;;5.63;100.00
45941;BME280;31858;46.008;8.978;2022-11-15T01:08:05;94749.59;;;5.33;100.00
45941;BME280;31858;46.008;8.978;2022-11-15T01:18:07;94744.31;;;5.33;100.00
45941;BME280;31858;46.008;8.978;2022-11-15T01:28:10;94723.28;;;5.24;100.00
45941;BME280;31858;46.008;8.978;2022-11-15T01:38:11;94731.38;;;5.15;100.00
45941;BME280;31858;46.008;8.978;2022-11-15T01:48:14;94724.84;;;5.25;100.00
45941;BME280;31858;46.008;8.978;2022-11-15T01:58:16;94715.38;;;5.24;100.00
45941;BME280;31858;46.008;8.978;2022-11-15T02:08:19;94717.69;;;5.25;100.00
45941;BME280;31858;46.008;8.978;2022-11-15T02:18:24;94719.03;;;5.19;100.00
45941;BME280;31858;46.008;8.978;2022-11-15T02:28:40;94703.00;;;5.40;100.00
45941;BME280;31858;46.008;8.978;2022-11-15T02:38:54;94707.59;;;5.15;100.00
45941;BME280;31858;46.008;8.978;2022-11-15T02:48:58;94692.22;;;5.33;100.00
45941;BME280;31858;46.008;8.978;2022-11-15T02:59:13;94673.00;;;5.20;100.00
45941;BME280;31858;46.008;8.978;2022-11-15T03:09:24;94669.06;;;5.14;100.00
45941;BME280;31858;46.008;8.978;2022-11-15T03:19:34;94651.47;;;5.06;100.00
45941;BME280;31858;46.008;8.978;2022-11-15T03:29:41;94649.72;;;4.98;100.00
45941;BME280;31858;46.008;8.978;2022-11-15T03:39:46;94641.91;;;5.02;100.00
45941;BME280;31858;46.008;8.978;2022-11-15T03:49:51;94632.22;;;5.34;100.00
45941;BME280;31858;46.008;8.978;2022-11-15T03:59:55;94623.22;;;5.35;100.00
45941;BME280;31858;46.008;8.978;2022-11-15T04:09:57;94610.47;;;5.24;100.00
45941;BME280;31858;46.008;8.978;2022-11-15T04:20:10;94601.59;;;5.45;100.00
45941;BME280;31858;46.008;8.978;2022-11-15T04:30:29;94603.06;;;5.30;100.00
45941;BME280;31858;46.008;8.978;2022-11-15T04:40:32;94595.91;;;5.58;100.00
45941;BME280;31858;46.008;8.978;2022-11-15T04:50:34;94599.53;;;5.38;100.00
45941;BME280;31858;46.008;8.978;2022-11-15T05:00:37;94588.94;;;5.38;100.00
45941;BME280;31858;46.008;8.978;2022-11-15T05:10:39;94584.03;;;5.24;100.00
45941;BME280;31858;46.008;8.978;2022-11-15T05:20:42;94578.97;;;5.32;100.00
45941;BME280;31858;46.008;8.978;2022-11-15T05:30:44;94577.44;;;5.31;100.00
45941;BME280;31858;46.008;8.978;2022-11-15T05:40:47;94557.28;;;5.54;100.00
45941;BME280;31858;46.008;8.978;2022-11-15T05:50:49;94550.44;;;5.37;100.00
45941;BME280;31858;46.008;8.978;2022-11-15T06:00:52;94554.78;;;5.45;100.00
45941;BME280;31858;46.008;8.978;2022-11-15T06:10:55;94550.72;;;5.48;100.00
45941;BME280;31858;46.008;8.978;2022-11-15T06:20:59;94545.28;;;5.56;100.00
45941;BME280;31858;46.008;8.978;2022-11-15T06:31:02;94551.50;;;5.64;100.00
45941;BME280;31858;46.008;8.978;2022-11-15T06:41:07;94548.09;;;5.64;100.00
45941;BME280;31858;46.008;8.978;2022-11-15T06:51:09;94565.34;;;5.73;100.00
45941;BME280;31858;46.008;8.978;2022-11-15T07:01:12;94575.75;;;5.82;100.00
45941;BME280;31858;46.008;8.978;2022-11-15T07:11:14;94570.28;;;5.75;100.00
45941;BME280;31858;46.008;8.978;2022-11-15T07:21:17;94581.88;;;5.70;100.00
45941;BME280;31858;46.008;8.978;2022-11-15T07:31:18;94581.19;;;5.73;100.00
45941;BME280;31858;46.008;8.978;2022-11-15T07:41:21;94581.13;;;5.85;100.00
45941;BME280;31858;46.008;8.978;2022-11-15T07:51:23;94583.94;;;5.77;100.00
45941;BME280;31858;46.008;8.978;2022-11-15T08:01:26;94576.69;;;5.74;100.00
45941;BME280;31858;46.008;8.978;2022-11-15T08:11:28;94576.78;;;5.77;100.00
45941;BME280;31858;46.008;8.978;2022-11-15T08:21:30;94583.69;;;5.82;100.00
45941;BME280;31858;46.008;8.978;2022-11-15T08:31:32;94562.84;;;5.93;100.00
45941;BME280;31858;46.008;8.978;2022-11-15T08:41:36;94550.72;;;6.07;100.00
45941;BME280;31858;46.008;8.978;2022-11-15T08:51:38;94547.06;;;6.12;100.00
45941;BME280;31858;46.008;8.978;2022-11-15T09:01:41;94543.28;;;6.44;100.00
45941;BME280;31858;46.008;8.978;2022-11-15T09:11:43;94535.94;;;6.38;100.00
45941;BME280;31858;46.008;8.978;2022-11-15T09:21:46;94545.84;;;6.41;100.00
45941;BME280;31858;46.008;8.978;2022-11-15T09:31:47;94543.13;;;6.37;100.00
45941;BME280;31858;46.008;8.978;2022-11-15T09:42:08;94551.47;;;6.39;100.00
45941;BME280;31858;46.008;8.978;2022-11-15T09:52:20;94547.47;;;6.45;100.00
45941;BME280;31858;46.008;8.978;2022-11-15T10:02:45;94552.13;;;6.52;100.00
45941;BME280;31858;46.008;8.978;2022-11-15T10:12:51;94548.69;;;6.51;100.00
45941;BME280;31858;46.008;8.978;2022-11-15T10:22:56;94538.97;;;6.55;100.00
45941;BME280;31858;46.008;8.978;2022-11-15T10:33:10;94521.00;;;6.65;100.00
45941;BME280;31858;46.008;8.978;2022-11-15T10:43:17;94499.28;;;6.75;100.00
45941;BME280;31858;46.008;8.978;2022-11-15T10:53:23;94475.88;;;6.77;100.00
45941;BME280;31858;46.008;8.978;2022-11-15T11:03:31;94471.69;;;6.76;100.00
45941;BME280;31858;46.008;8.978;2022-11-15T11:13:37;94458.84;;;6.78;100.00
45941;BME280;31858;46.008;8.978;2022-11-15T11:23:46;94445.63;;;6.78;100.00
45941;BME280;31858;46.008;8.978;2022-11-15T11:34:04;94426.72;;;6.79;100.00
45941;BME280;31858;46.008;8.978;2022-11-15T11:44:27;94403.44;;;6.88;100.00
45941;BME280;31858;46.008;8.978;2022-11-15T11:54:37;94388.03;;;6.94;100.00
45941;BME280;31858;46.008;8.978;2022-11-15T12:04:43;94390.00;;;6.97;100.00
45941;BME280;31858;46.008;8.978;2022-11-15T12:14:48;94393.69;;;6.93;100.00
45941;BME280;31858;46.008;8.978;2022-11-15T12:24:56;94379.41;;;6.78;100.00
45941;BME280;31858;46.008;8.978;2022-11-15T12:35:00;94373.56;;;6.69;100.00
45941;BME280;31858;46.008;8.978;2022-11-15T12:45:25;94356.16;;;6.68;100.00
45941;BME280;31858;46.008;8.978;2022-11-15T12:55:32;94339.22;;;6.72;100.00
45941;BME280;31858;46.008;8.978;2022-11-15T13:16:21;94303.44;;;6.82;100.00
45941;BME280;31858;46.008;8.978;2022-11-15T13:26:23;94286.25;;;6.72;100.00
45941;BME280;31858;46.008;8.978;2022-11-15T13:36:28;94272.97;;;6.69;100.00
45941;BME280;31858;46.008;8.978;2022-11-15T13:46:31;94261.59;;;6.68;100.00
45941;BME280;31858;46.008;8.978;2022-11-15T13:56:35;94249.19;;;6.72;100.00
45941;BME280;31858;46.008;8.978;2022-11-15T14:06:44;94245.31;;;6.66;100.00
45941;BME280;31858;46.008;8.978;2022-11-15T14:16:50;94240.41;;;6.68;100.00
45941;BME280;31858;46.008;8.978;2022-11-15T14:26:52;94234.00;;;6.69;100.00
45941;BME280;31858;46.008;8.978;2022-11-15T14:36:55;94226.53;;;6.75;100.00
45941;BME280;31858;46.008;8.978;2022-11-15T14:46:58;94227.59;;;6.70;100.00
45941;BME280;31858;46.008;8.978;2022-11-15T14:57:01;94222.66;;;6.69;100.00
45941;BME280;31858;46.008;8.978;2022-11-15T15:07:02;94223.00;;;6.67;100.00
45941;BME280;31858;46.008;8.978;2022-11-15T15:17:05;94211.66;;;6.67;100.00
45941;BME280;31858;46.008;8.978;2022-11-15T15:27:07;94190.06;;;6.65;100.00
45941;BME280;31858;46.008;8.978;2022-11-15T15:37:21;94168.13;;;6.64;100.00
45941;BME280;31858;46.008;8.978;2022-11-15T15:47:23;94164.28;;;6.62;100.00
45941;BME280;31858;46.008;8.978;2022-11-15T15:57:26;94155.59;;;6.61;100.00
45941;BME280;31858;46.008;8.978;2022-11-15T16:07:28;94147.25;;;6.59;100.00
45941;BME280;31858;46.008;8.978;2022-11-15T16:17:33;94152.88;;;6.58;100.00
45941;BME280;31858;46.008;8.978;2022-11-15T16:27:36;94142.25;;;6.54;100.00
45941;BME280;31858;46.008;8.978;2022-11-15T16:37:46;94141.84;;;6.52;100.00
45941;BME280;31858;46.008;8.978;2022-11-15T16:47:47;94148.66;;;6.53;100.00
45941;BME280;31858;46.008;8.978;2022-11-15T16:57:51;94148.66;;;6.53;100.00
45941;BME280;31858;46.008;8.978;2022-11-15T17:07:52;94150.13;;;6.50;100.00
45941;BME280;31858;46.008;8.978;2022-11-15T17:17:55;94142.94;;;6.47;100.00
45941;BME280;31858;46.008;8.978;2022-11-15T17:27:57;94148.63;;;6.49;100.00
45941;BME280;31858;46.008;8.978;2022-11-15T17:38:00;94140.28;;;6.47;100.00
45941;BME280;31858;46.008;8.978;2022-11-15T17:48:01;94142.09;;;6.43;100.00
45941;BME280;31858;46.008;8.978;2022-11-15T17:58:04;94128.94;;;6.47;100.00
45941;BME280;31858;46.008;8.978;2022-11-15T18:08:06;94120.63;;;6.48;100.00
45941;BME280;31858;46.008;8.978;2022-11-15T18:18:09;94107.75;;;6.47;100.00
45941;BME280;31858;46.008;8.978;2022-11-15T18:28:10;94112.22;;;6.43;100.00
45941;BME280;31858;46.008;8.978;2022-11-15T18:38:13;94098.66;;;6.44;100.00
45941;BME280;31858;46.008;8.978;2022-11-15T18:48:15;94098.66;;;6.44;100.00
45941;BME280;31858;46.008;8.978;2022-11-15T18:58:18;94089.59;;;6.45;100.00
45941;BME280;31858;46.008;8.978;2022-11-15T19:08:19;94076.28;;;6.42;100.00
45941;BME280;31858;46.008;8.978;2022-11-15T19:18:22;94070.28;;;6.45;100.00
45941;BME280;31858;46.008;8.978;2022-11-15T19:28:24;94048.34;;;6.44;100.00
45941;BME280;31858;46.008;8.978;2022-11-15T19:38:29;94053.72;;;6.48;100.00
45941;BME280;31858;46.008;8.978;2022-11-15T19:48:31;94045.00;;;6.47;100.00
45941;BME280;31858;46.008;8.978;2022-11-15T19:58:35;94032.88;;;6.46;100.00
45941;BME280;31858;46.008;8.978;2022-11-15T20:08:36;94024.22;;;6.49;100.00
45941;BME280;31858;46.008;8.978;2022-11-15T20:18:40;94008.34;;;6.49;100.00
45941;BME280;31858;46.008;8.978;2022-11-15T20:28:42;94009.47;;;6.48;100.00
45941;BME280;31858;46.008;8.978;2022-11-15T20:38:45;94012.13;;;6.48;100.00
45941;BME280;31858;46.008;8.978;2022-11-15T20:48:47;94007.22;;;6.50;100.00
45941;BME280;31858;46.008;8.978;2022-11-15T20:58:50;94009.84;;;6.50;100.00
45941;BME280;31858;46.008;8.978;2022-11-15T21:08:53;94001.56;;;6.52;100.00
45941;BME280;31858;46.008;8.978;2022-11-15T21:19:14;93971.69;;;6.51;100.00
45941;BME280;31858;46.008;8.978;2022-11-15T21:29:16;93955.78;;;6.48;100.00
45941;BME280;31858;46.008;8.978;2022-11-15T21:39:19;93942.94;;;6.50;100.00
45941;BME280;31858;46.008;8.978;2022-11-15T21:49:20;93933.88;;;6.51;100.00
45941;BME280;31858;46.008;8.978;2022-11-15T21:59:23;93930.84;;;6.52;100.00
45941;BME280;31858;46.008;8.978;2022-11-15T22:09:25;93917.25;;;6.54;100.00
45941;BME280;31858;46.008;8.978;2022-11-15T22:19:28;93899.13;;;6.56;100.00
45941;BME280;31858;46.008;8.978;2022-11-15T22:29:30;93886.25;;;6.54;100.00
45941;BME280;31858;46.008;8.978;2022-11-15T22:39:33;93879.44;;;6.53;100.00
45941;BME280;31858;46.008;8.978;2022-11-15T22:49:35;93876.03;;;6.53;100.00
45941;BME280;31858;46.008;8.978;2022-11-15T22:59:38;93855.22;;;6.48;100.00
45941;BME280;31858;46.008;8.978;2022-11-15T23:09:40;93851.03;;;6.47;100.00
45941;BME280;31858;46.008;8.978;2022-11-15T23:19:43;93842.75;;;6.48;100.00
45941;BME280;31858;46.008;8.978;2022-11-15T23:29:45;93841.63;;;6.49;100.00
45941;BME280;31858;46.008;8.978;2022-11-15T23:40:07;93832.53;;;6.50;100.00
45941;BME280;31858;46.008;8.978;2022-11-15T23:50:10;93816.66;;;6.50;100.00
